createdAt,value
2017-08-01T00:00:08.525Z,0
2017-08-01T00:00:50.320Z,0
2017-08-01T00:01:31.318Z,0
2017-08-01T00:02:12.312Z,0
2017-08-01T00:02:53.706Z,0
2017-08-01T00:03:34.711Z,0
2017-08-01T00:04:15.787Z,0
2017-08-01T00:04:56.683Z,0
2017-08-01T00:05:37.695Z,0
2017-08-01T00:06:18.693Z,0
2017-08-01T00:06:59.692Z,0
2017-08-01T00:07:40.791Z,0
2017-08-01T00:08:21.891Z,0
2017-08-01T00:09:02.886Z,0
2017-08-01T00:09:43.787Z,0
2017-08-01T00:10:24.770Z,0
2017-08-01T00:11:05.668Z,0
2017-08-01T00:11:46.659Z,0
2017-08-01T00:12:27.758Z,0
2017-08-01T00:13:09.047Z,0
2017-08-01T00:13:49.933Z,0
2017-08-01T00:14:31.917Z,0
2017-08-01T00:15:13.207Z,0
2017-08-01T00:15:54.117Z,0
2017-08-01T00:16:35.115Z,0
2017-08-01T00:17:16.109Z,0
2017-08-01T00:17:57.213Z,0
2017-08-01T00:18:38.105Z,0
2017-08-01T00:19:18.910Z,0
2017-08-01T00:20:00.005Z,0
2017-08-01T00:20:41.300Z,0
2017-08-01T00:21:22.188Z,0
2017-08-01T00:22:03.191Z,0
2017-08-01T00:22:44.177Z,0
2017-08-01T00:23:25.089Z,0
2017-08-01T00:24:06.286Z,0
2017-08-01T00:24:47.394Z,0
2017-08-01T00:25:28.495Z,0
2017-08-01T00:26:09.473Z,0
2017-08-01T00:26:50.474Z,0
2017-08-01T00:27:31.562Z,0
2017-08-01T00:28:12.549Z,0
2017-08-01T00:28:53.551Z,0
2017-08-01T00:29:34.531Z,0
2017-08-01T00:30:15.931Z,0
2017-08-01T00:30:57.025Z,0
2017-08-01T00:31:38.020Z,0
2017-08-01T00:32:19.011Z,0
2017-08-01T00:33:00.200Z,0
2017-08-01T00:33:41.284Z,0
2017-08-01T00:34:22.371Z,0
2017-08-01T00:35:03.268Z,0
2017-08-01T00:35:44.364Z,0
2017-08-01T00:36:25.454Z,0
2017-08-01T00:37:06.552Z,0
2017-08-01T00:37:47.552Z,0
2017-08-01T00:38:28.545Z,0
2017-08-01T00:39:09.732Z,0
2017-08-01T00:39:50.836Z,0
2017-08-01T00:40:31.926Z,0
2017-08-01T00:41:13.030Z,0
2017-08-01T00:41:54.235Z,0
2017-08-01T00:42:35.226Z,0
2017-08-01T00:43:16.418Z,0
2017-08-01T00:43:57.508Z,0
2017-08-01T00:44:38.667Z,0
2017-08-01T00:45:19.561Z,0
2017-08-01T00:46:00.752Z,0
2017-08-01T00:46:41.848Z,0
2017-08-01T00:47:22.937Z,0
2017-08-01T00:48:03.825Z,0
2017-08-01T00:48:44.819Z,0
2017-08-01T00:49:26.217Z,0
2017-08-01T00:50:07.310Z,0
2017-08-01T00:50:48.528Z,0
2017-08-01T00:51:29.697Z,0
2017-08-01T00:52:10.792Z,0
2017-08-01T00:52:52.092Z,0
2017-08-01T00:53:33.592Z,0
2017-08-01T00:54:14.583Z,0
2017-08-01T00:54:55.574Z,0
2017-08-01T00:55:36.574Z,0
2017-08-01T00:56:17.568Z,0
2017-08-01T00:56:58.682Z,0
2017-08-01T00:57:39.678Z,0
2017-08-01T00:58:20.571Z,0
2017-08-01T00:59:01.663Z,0
2017-08-01T00:59:42.754Z,0
2017-08-01T01:00:23.652Z,0
2017-08-01T01:01:04.651Z,0
2017-08-01T01:01:45.941Z,0
2017-08-01T01:02:26.936Z,0
2017-08-01T01:03:08.640Z,0
2017-08-01T01:03:49.633Z,0
2017-08-01T01:04:30.827Z,0
2017-08-01T01:05:11.915Z,0
2017-08-01T01:05:53.010Z,0
2017-08-01T01:06:34.409Z,0
2017-08-01T01:07:15.603Z,0
2017-08-01T01:07:56.691Z,0
2017-08-01T01:08:37.687Z,0
2017-08-01T01:09:19.070Z,0
2017-08-01T01:09:59.869Z,0
2017-08-01T01:10:40.790Z,0
2017-08-01T01:11:21.877Z,0
2017-08-01T01:12:02.881Z,0
2017-08-01T01:12:43.875Z,0
2017-08-01T01:13:24.670Z,0
2017-08-01T01:14:05.668Z,0
2017-08-01T01:14:46.587Z,0
2017-08-01T01:15:27.568Z,0
2017-08-01T01:16:08.460Z,0
2017-08-01T01:16:49.462Z,0
2017-08-01T01:17:30.244Z,0
2017-08-01T01:18:11.337Z,0
2017-08-01T01:18:52.433Z,0
2017-08-01T01:19:33.725Z,0
2017-08-01T01:20:14.820Z,0
2017-08-01T01:20:55.707Z,0
2017-08-01T01:21:36.806Z,0
2017-08-01T01:22:17.793Z,0
2017-08-01T01:22:58.990Z,0
2017-08-01T01:23:41.358Z,0
2017-08-01T01:24:22.354Z,0
2017-08-01T01:25:03.342Z,0
2017-08-01T01:25:44.137Z,0
2017-08-01T01:26:25.219Z,0
2017-08-01T01:27:06.728Z,0
2017-08-01T01:27:47.827Z,0
2017-08-01T01:28:28.814Z,0
2017-08-01T01:29:09.821Z,0
2017-08-01T01:29:50.716Z,0
2017-08-01T01:30:31.906Z,0
2017-08-01T01:31:13.868Z,0
2017-08-01T01:31:55.862Z,0
2017-08-01T01:32:38.303Z,0
2017-08-01T01:33:21.089Z,0
2017-08-01T01:34:03.747Z,0
2017-08-01T01:34:45.970Z,0
2017-08-01T01:35:28.320Z,0
2017-08-01T01:36:10.873Z,0
2017-08-01T01:36:53.300Z,0
2017-08-01T01:37:35.712Z,0
2017-08-01T01:38:19.135Z,0
2017-08-01T01:39:01.589Z,0
2017-08-01T01:39:44.135Z,0
2017-08-01T01:40:26.419Z,0
2017-08-01T01:41:09.222Z,0
2017-08-01T01:41:51.693Z,0
2017-08-01T01:42:33.912Z,0
2017-08-01T01:43:16.199Z,0
2017-08-01T01:43:58.933Z,0
2017-08-01T01:44:41.406Z,0
2017-08-01T01:45:24.024Z,0
2017-08-01T01:46:06.455Z,0
2017-08-01T01:46:49.074Z,0
2017-08-01T01:47:30.940Z,0
2017-08-01T01:48:13.504Z,0
2017-08-01T01:48:56.267Z,0
2017-08-01T01:49:38.805Z,0
2017-08-01T01:50:21.299Z,0
2017-08-01T01:51:03.732Z,0
2017-08-01T01:51:47.416Z,0
2017-08-01T01:52:29.734Z,0
2017-08-01T01:53:11.884Z,0
2017-08-01T01:53:54.291Z,0
2017-08-01T01:54:36.685Z,0
2017-08-01T01:55:19.131Z,0
2017-08-01T01:56:01.601Z,0
2017-08-01T01:56:44.440Z,0
2017-08-01T01:57:26.903Z,0
2017-08-01T01:58:09.342Z,0
2017-08-01T01:58:51.806Z,0
2017-08-01T01:59:34.202Z,0
2017-08-01T02:00:16.855Z,0
2017-08-01T02:00:59.400Z,0
2017-08-01T02:01:41.881Z,0
2017-08-01T02:02:23.805Z,0
2017-08-01T02:03:06.191Z,0
2017-08-01T02:03:48.414Z,0
2017-08-01T02:04:30.519Z,0
2017-08-01T02:05:12.755Z,0
2017-08-01T02:05:54.961Z,0
2017-08-01T02:06:37.297Z,0
2017-08-01T02:07:19.330Z,0
2017-08-01T02:08:01.143Z,0
2017-08-01T02:08:43.064Z,0
2017-08-01T02:09:25.081Z,0
2017-08-01T02:10:06.873Z,0
2017-08-01T02:10:48.964Z,0
2017-08-01T02:11:30.877Z,0
2017-08-01T02:12:13.335Z,0
2017-08-01T02:12:55.285Z,0
2017-08-01T02:13:37.143Z,0
2017-08-01T02:14:19.143Z,0
2017-08-01T02:15:00.851Z,0
2017-08-01T02:15:42.958Z,0
2017-08-01T02:16:24.746Z,0
2017-08-01T02:17:06.465Z,0
2017-08-01T02:17:47.926Z,0
2017-08-01T02:18:29.404Z,0
2017-08-01T02:19:10.889Z,0
2017-08-01T02:19:52.927Z,0
2017-08-01T02:20:34.938Z,0
2017-08-01T02:21:17.068Z,0
2017-08-01T02:21:59.495Z,0
2017-08-01T02:22:41.492Z,0
2017-08-01T02:23:23.641Z,0
2017-08-01T02:24:05.453Z,0
2017-08-01T02:24:47.411Z,0
2017-08-01T02:25:28.981Z,0
2017-08-01T02:26:10.522Z,0
2017-08-01T02:26:51.944Z,0
2017-08-01T02:27:33.487Z,0
2017-08-01T02:28:15.417Z,0
2017-08-01T02:28:57.079Z,0
2017-08-01T02:29:38.799Z,0
2017-08-01T02:30:20.387Z,0
2017-08-01T02:31:02.585Z,0
2017-08-01T02:31:44.776Z,0
2017-08-01T02:32:27.026Z,0
2017-08-01T02:33:09.540Z,0
2017-08-01T02:33:51.442Z,0
2017-08-01T02:34:33.703Z,0
2017-08-01T02:35:15.628Z,0
2017-08-01T02:35:57.319Z,0
2017-08-01T02:36:39.283Z,0
2017-08-01T02:37:21.428Z,0
2017-08-01T02:38:03.720Z,0
2017-08-01T02:38:45.009Z,0
2017-08-01T02:39:27.009Z,0
2017-08-01T02:40:09.041Z,0
2017-08-01T02:40:50.575Z,0
2017-08-01T02:41:32.242Z,0
2017-08-01T02:42:13.515Z,0
2017-08-01T02:42:55.419Z,0
2017-08-01T02:43:37.343Z,0
2017-08-01T02:44:19.391Z,0
2017-08-01T02:45:01.234Z,0
2017-08-01T02:45:42.996Z,0
2017-08-01T02:46:25.005Z,0
2017-08-01T02:47:06.777Z,0
2017-08-01T02:47:48.619Z,0
2017-08-01T02:48:30.717Z,0
2017-08-01T02:49:13.163Z,0
2017-08-01T02:49:55.431Z,0
2017-08-01T02:50:37.693Z,0
2017-08-01T02:51:19.725Z,0
2017-08-01T02:52:02.044Z,0
2017-08-01T02:52:44.531Z,0
2017-08-01T02:53:27.077Z,0
2017-08-01T02:54:09.372Z,0
2017-08-01T02:54:51.293Z,0
2017-08-01T02:55:33.051Z,0
2017-08-01T02:56:14.920Z,0
2017-08-01T02:56:56.929Z,0
2017-08-01T02:57:39.011Z,0
2017-08-01T02:58:20.746Z,0
2017-08-01T02:59:02.086Z,0
2017-08-01T02:59:43.697Z,0
2017-08-01T03:00:25.366Z,0
2017-08-01T03:01:07.571Z,0
2017-08-01T03:01:49.418Z,0
2017-08-01T03:02:31.124Z,0
2017-08-01T03:03:12.775Z,0
2017-08-01T03:03:54.472Z,0
2017-08-01T03:04:36.222Z,0
2017-08-01T03:05:18.384Z,0
2017-08-01T03:06:00.557Z,0
2017-08-01T03:06:42.522Z,0
2017-08-01T03:07:24.684Z,0
2017-08-01T03:08:06.745Z,0
2017-08-01T03:08:48.454Z,0
2017-08-01T03:09:30.420Z,0
2017-08-01T03:10:12.517Z,0
2017-08-01T03:10:54.513Z,0
2017-08-01T03:11:36.562Z,0
2017-08-01T03:12:18.260Z,0
2017-08-01T03:13:00.479Z,0
2017-08-01T03:13:42.449Z,0
2017-08-01T03:14:24.004Z,0
2017-08-01T03:15:05.708Z,0
2017-08-01T03:15:47.792Z,0
2017-08-01T03:16:29.720Z,0
2017-08-01T03:17:11.740Z,0
2017-08-01T03:17:53.606Z,0
2017-08-01T03:18:35.492Z,0
2017-08-01T03:19:17.305Z,0
2017-08-01T03:19:59.183Z,0
2017-08-01T03:20:41.162Z,0
2017-08-01T03:21:22.935Z,0
2017-08-01T03:22:04.879Z,0
2017-08-01T03:22:46.375Z,0
2017-08-01T03:23:28.870Z,0
2017-08-01T03:24:10.634Z,0
2017-08-01T03:24:52.350Z,0
2017-08-01T03:25:34.844Z,0
2017-08-01T03:26:16.591Z,0
2017-08-01T03:26:58.518Z,0
2017-08-01T03:27:39.996Z,0
2017-08-01T03:28:21.757Z,0
2017-08-01T03:29:02.911Z,0
2017-08-01T03:29:44.905Z,0
2017-08-01T03:30:26.748Z,0
2017-08-01T03:31:08.481Z,0
2017-08-01T03:31:50.344Z,0
2017-08-01T03:32:32.377Z,0
2017-08-01T03:33:14.304Z,0
2017-08-01T03:33:56.807Z,0
2017-08-01T03:34:38.905Z,0
2017-08-01T03:35:20.553Z,0
2017-08-01T03:36:02.620Z,0
2017-08-01T03:36:44.353Z,0
2017-08-01T03:37:26.173Z,0
2017-08-01T03:38:08.260Z,0
2017-08-01T03:38:50.073Z,0
2017-08-01T03:39:31.870Z,0
2017-08-01T03:40:13.877Z,0
2017-08-01T03:40:55.596Z,0
2017-08-01T03:41:37.511Z,0
2017-08-01T03:42:20.096Z,0
2017-08-01T03:43:02.202Z,0
2017-08-01T03:43:43.992Z,0
2017-08-01T03:44:26.363Z,0
2017-08-01T03:45:08.551Z,0
2017-08-01T03:45:50.509Z,0
2017-08-01T03:46:32.565Z,0
2017-08-01T03:47:14.609Z,0
2017-08-01T03:47:56.551Z,0
2017-08-01T03:48:38.352Z,0
2017-08-01T03:49:20.632Z,0
2017-08-01T03:50:02.550Z,0
2017-08-01T03:50:44.186Z,0
2017-08-01T03:51:26.205Z,0
2017-08-01T03:52:08.406Z,0
2017-08-01T03:52:50.480Z,0
2017-08-01T03:53:32.409Z,0
2017-08-01T03:54:14.442Z,0
2017-08-01T03:54:56.375Z,0
2017-08-01T03:55:38.162Z,0
2017-08-01T03:56:19.870Z,0
2017-08-01T03:57:01.741Z,0
2017-08-01T03:57:43.679Z,0
2017-08-01T03:58:25.453Z,0
2017-08-01T03:59:07.672Z,0
2017-08-01T03:59:49.314Z,0
2017-08-01T04:00:30.699Z,0
2017-08-01T04:01:12.773Z,0
2017-08-01T04:01:54.447Z,0
2017-08-01T04:02:36.428Z,0
2017-08-01T04:03:18.443Z,0
2017-08-01T04:04:00.451Z,0
2017-08-01T04:04:42.142Z,5
2017-08-01T04:05:23.915Z,5
2017-08-01T04:06:06.040Z,5
2017-08-01T04:06:47.974Z,5
2017-08-01T04:07:29.804Z,5
2017-08-01T04:08:11.915Z,5
2017-08-01T04:08:53.810Z,5
2017-08-01T04:09:35.756Z,5
2017-08-01T04:10:17.576Z,5
2017-08-01T04:10:59.415Z,5
2017-08-01T04:11:41.309Z,10
2017-08-01T04:12:23.077Z,10
2017-08-01T04:13:04.619Z,10
2017-08-01T04:13:45.927Z,15
2017-08-01T04:14:27.817Z,15
2017-08-01T04:15:09.598Z,15
2017-08-01T04:15:51.408Z,15
2017-08-01T04:16:33.072Z,15
2017-08-01T04:17:14.505Z,15
2017-08-01T04:17:56.125Z,15
2017-08-01T04:18:37.852Z,15
2017-08-01T04:19:19.724Z,15
2017-08-01T04:20:01.630Z,15
2017-08-01T04:20:43.316Z,15
2017-08-01T04:21:25.503Z,15
2017-08-01T04:22:07.137Z,15
2017-08-01T04:22:48.993Z,15
2017-08-01T04:23:30.273Z,15
2017-08-01T04:24:12.413Z,20
2017-08-01T04:24:54.373Z,20
2017-08-01T04:25:36.378Z,20
2017-08-01T04:26:18.698Z,20
2017-08-01T04:27:00.804Z,20
2017-08-01T04:27:42.844Z,25
2017-08-01T04:28:25.059Z,25
2017-08-01T04:29:07.387Z,25
2017-08-01T04:29:49.759Z,30
2017-08-01T04:30:32.178Z,35
2017-08-01T04:31:13.782Z,35
2017-08-01T04:31:55.697Z,40
2017-08-01T04:32:37.253Z,45
2017-08-01T04:33:19.548Z,45
2017-08-01T04:34:01.114Z,50
2017-08-01T04:34:42.209Z,50
2017-08-01T04:35:23.404Z,50
2017-08-01T04:36:04.507Z,50
2017-08-01T04:36:45.607Z,50
2017-08-01T04:37:26.714Z,50
2017-08-01T04:38:07.709Z,45
2017-08-01T04:38:48.706Z,40
2017-08-01T04:39:29.937Z,40
2017-08-01T04:40:11.975Z,40
2017-08-01T04:40:53.926Z,45
2017-08-01T04:41:35.928Z,45
2017-08-01T04:42:17.860Z,50
2017-08-01T04:43:00.038Z,55
2017-08-01T04:43:41.936Z,65
2017-08-01T04:44:23.860Z,70
2017-08-01T04:45:05.428Z,80
2017-08-01T04:45:47.541Z,90
2017-08-01T04:46:29.282Z,95
2017-08-01T04:47:11.163Z,100
2017-08-01T04:47:52.169Z,100
2017-08-01T04:48:34.262Z,105
2017-08-01T04:49:16.501Z,100
2017-08-01T04:49:58.488Z,100
2017-08-01T04:50:40.311Z,95
2017-08-01T04:51:22.064Z,95
2017-08-01T04:52:04.185Z,85
2017-08-01T04:52:45.758Z,80
2017-08-01T04:53:28.124Z,75
2017-08-01T04:54:09.726Z,65
2017-08-01T04:54:51.382Z,65
2017-08-01T04:55:33.321Z,65
2017-08-01T04:56:15.601Z,60
2017-08-01T04:56:57.522Z,60
2017-08-01T04:57:39.038Z,60
2017-08-01T04:58:20.715Z,60
2017-08-01T04:59:02.935Z,65
2017-08-01T04:59:45.021Z,65
2017-08-01T05:00:26.700Z,70
2017-08-01T05:01:08.261Z,70
2017-08-01T05:01:50.691Z,70
2017-08-01T05:02:32.492Z,75
2017-08-01T05:03:14.473Z,75
2017-08-01T05:03:56.785Z,75
2017-08-01T05:04:39.073Z,75
2017-08-01T05:05:21.582Z,75
2017-08-01T05:06:03.964Z,80
2017-08-01T05:06:45.940Z,80
2017-08-01T05:07:27.723Z,80
2017-08-01T05:08:10.098Z,85
2017-08-01T05:08:52.291Z,85
2017-08-01T05:09:34.389Z,85
2017-08-01T05:10:16.630Z,90
2017-08-01T05:10:58.993Z,90
2017-08-01T05:11:41.584Z,95
2017-08-01T05:12:24.023Z,95
2017-08-01T05:13:06.078Z,100
2017-08-01T05:13:48.157Z,100
2017-08-01T05:14:30.858Z,105
2017-08-01T05:15:13.323Z,100
2017-08-01T05:15:55.879Z,100
2017-08-01T05:16:38.115Z,105
2017-08-01T05:17:19.681Z,105
2017-08-01T05:18:01.822Z,100
2017-08-01T05:18:44.004Z,95
2017-08-01T05:19:26.548Z,95
2017-08-01T05:20:09.036Z,100
2017-08-01T05:20:51.516Z,105
2017-08-01T05:21:33.765Z,105
2017-08-01T05:22:15.966Z,110
2017-08-01T05:22:58.333Z,115
2017-08-01T05:23:40.419Z,120
2017-08-01T05:24:22.520Z,120
2017-08-01T05:25:05.115Z,125
2017-08-01T05:25:47.819Z,130
2017-08-01T05:26:29.869Z,135
2017-08-01T05:27:12.650Z,135
2017-08-01T05:27:54.962Z,135
2017-08-01T05:28:37.609Z,130
2017-08-01T05:29:20.183Z,125
2017-08-01T05:30:02.396Z,125
2017-08-01T05:30:44.799Z,120
2017-08-01T05:31:27.186Z,115
2017-08-01T05:32:09.053Z,115
2017-08-01T05:32:52.728Z,110
2017-08-01T05:33:34.930Z,110
2017-08-01T05:34:16.960Z,110
2017-08-01T05:34:59.083Z,115
2017-08-01T05:35:41.304Z,110
2017-08-01T05:36:22.612Z,110
2017-08-01T05:37:03.697Z,110
2017-08-01T05:37:44.703Z,105
2017-08-01T05:38:25.889Z,105
2017-08-01T05:39:06.992Z,100
2017-08-01T05:39:47.984Z,100
2017-08-01T05:40:29.074Z,105
2017-08-01T05:41:10.284Z,110
2017-08-01T05:41:51.373Z,115
2017-08-01T05:42:32.478Z,110
2017-08-01T05:43:17.282Z,115
2017-08-01T05:43:58.281Z,120
2017-08-01T05:44:39.289Z,120
2017-08-01T05:45:20.308Z,125
2017-08-01T05:46:01.423Z,125
2017-08-01T05:46:42.516Z,125
2017-08-01T05:47:23.719Z,130
2017-08-01T05:48:04.715Z,125
2017-08-01T05:48:45.724Z,125
2017-08-01T05:49:26.819Z,120
2017-08-01T05:50:07.914Z,120
2017-08-01T05:50:48.912Z,120
2017-08-01T05:51:30.001Z,120
2017-08-01T05:52:10.897Z,120
2017-08-01T05:52:51.896Z,120
2017-08-01T05:53:32.894Z,125
2017-08-01T05:54:13.988Z,120
2017-08-01T05:54:55.177Z,120
2017-08-01T05:55:36.579Z,120
2017-08-01T05:56:17.680Z,120
2017-08-01T05:56:58.677Z,115
2017-08-01T05:57:39.873Z,115
2017-08-01T05:58:20.994Z,120
2017-08-01T05:59:02.189Z,120
2017-08-01T05:59:43.187Z,125
2017-08-01T06:00:24.390Z,120
2017-08-01T06:01:05.586Z,120
2017-08-01T06:01:46.796Z,120
2017-08-01T06:02:27.891Z,115
2017-08-01T06:03:08.993Z,110
2017-08-01T06:03:49.895Z,110
2017-08-01T06:04:30.994Z,110
2017-08-01T06:05:12.212Z,110
2017-08-01T06:05:53.419Z,115
2017-08-01T06:06:34.512Z,115
2017-08-01T06:07:15.611Z,115
2017-08-01T06:07:56.704Z,115
2017-08-01T06:08:37.906Z,110
2017-08-01T06:09:18.937Z,115
2017-08-01T06:10:00.342Z,115
2017-08-01T06:10:41.948Z,115
2017-08-01T06:11:23.192Z,115
2017-08-01T06:12:04.177Z,115
2017-08-01T06:12:45.472Z,125
2017-08-01T06:13:26.581Z,145
2017-08-01T06:14:07.598Z,145
2017-08-01T06:14:49.093Z,150
2017-08-01T06:15:29.987Z,150
2017-08-01T06:16:11.185Z,150
2017-08-01T06:16:52.872Z,155
2017-08-01T06:17:33.973Z,160
2017-08-01T06:18:15.327Z,170
2017-08-01T06:18:56.425Z,190
2017-08-01T06:19:37.529Z,215
2017-08-01T06:20:18.530Z,235
2017-08-01T06:20:59.532Z,245
2017-08-01T06:21:40.523Z,240
2017-08-01T06:22:21.525Z,225
2017-08-01T06:23:02.635Z,170
2017-08-01T06:23:43.633Z,180
2017-08-01T06:24:24.625Z,180
2017-08-01T06:25:05.622Z,155
2017-08-01T06:25:46.925Z,130
2017-08-01T06:26:27.920Z,120
2017-08-01T06:27:08.825Z,140
2017-08-01T06:27:49.926Z,155
2017-08-01T06:28:31.025Z,150
2017-08-01T06:29:12.222Z,190
2017-08-01T06:29:53.317Z,170
2017-08-01T06:30:34.419Z,225
2017-08-01T06:31:15.621Z,220
2017-08-01T06:31:56.618Z,240
2017-08-01T06:32:37.618Z,265
2017-08-01T06:33:19.122Z,285
2017-08-01T06:34:00.228Z,315
2017-08-01T06:34:41.245Z,340
2017-08-01T06:35:22.348Z,370
2017-08-01T06:36:03.544Z,370
2017-08-01T06:36:44.554Z,350
2017-08-01T06:37:26.557Z,325
2017-08-01T06:38:09.141Z,390
2017-08-01T06:38:51.815Z,340
2017-08-01T06:39:34.547Z,275
2017-08-01T06:40:16.860Z,280
2017-08-01T06:40:58.841Z,330
2017-08-01T06:41:41.180Z,675
2017-08-01T06:42:23.980Z,995
2017-08-01T06:43:06.787Z,765
2017-08-01T06:43:49.424Z,640
2017-08-01T06:44:32.131Z,380
2017-08-01T06:45:15.052Z,335
2017-08-01T06:45:57.720Z,325
2017-08-01T06:46:40.200Z,425
2017-08-01T06:47:22.491Z,450
2017-08-01T06:48:04.458Z,290
2017-08-01T06:48:46.772Z,295
2017-08-01T06:49:29.580Z,285
2017-08-01T06:50:12.284Z,340
2017-08-01T06:50:54.326Z,265
2017-08-01T06:51:36.505Z,245
2017-08-01T06:52:18.572Z,285
2017-08-01T06:53:01.104Z,250
2017-08-01T06:53:43.045Z,255
2017-08-01T06:54:25.241Z,265
2017-08-01T06:55:06.852Z,270
2017-08-01T06:55:48.826Z,275
2017-08-01T06:56:31.137Z,280
2017-08-01T06:57:13.330Z,290
2017-08-01T06:57:55.481Z,280
2017-08-01T06:58:37.925Z,280
2017-08-01T06:59:19.597Z,280
2017-08-01T07:00:01.432Z,295
2017-08-01T07:00:43.261Z,340
2017-08-01T07:01:24.765Z,360
2017-08-01T07:02:06.067Z,355
2017-08-01T07:02:48.329Z,320
2017-08-01T07:03:30.033Z,340
2017-08-01T07:04:11.800Z,435
2017-08-01T07:04:53.597Z,410
2017-08-01T07:05:35.236Z,415
2017-08-01T07:06:17.566Z,420
2017-08-01T07:06:59.344Z,435
2017-08-01T07:07:41.382Z,455
2017-08-01T07:08:23.339Z,460
2017-08-01T07:09:05.239Z,445
2017-08-01T07:09:47.220Z,425
2017-08-01T07:10:29.205Z,415
2017-08-01T07:11:10.639Z,395
2017-08-01T07:11:53.013Z,380
2017-08-01T07:12:35.526Z,370
2017-08-01T07:13:17.789Z,380
2017-08-01T07:14:00.216Z,375
2017-08-01T07:14:42.333Z,380
2017-08-01T07:15:24.119Z,375
2017-08-01T07:16:06.354Z,375
2017-08-01T07:16:48.519Z,370
2017-08-01T07:17:29.654Z,365
2017-08-01T07:18:11.661Z,365
2017-08-01T07:18:54.507Z,370
2017-08-01T07:19:37.057Z,385
2017-08-01T07:20:19.762Z,395
2017-08-01T07:21:02.139Z,395
2017-08-01T07:21:44.713Z,405
2017-08-01T07:22:27.389Z,420
2017-08-01T07:23:09.962Z,425
2017-08-01T07:23:52.840Z,445
2017-08-01T07:24:35.568Z,460
2017-08-01T07:25:18.255Z,510
2017-08-01T07:26:01.064Z,495
2017-08-01T07:26:43.558Z,475
2017-08-01T07:27:26.271Z,440
2017-08-01T07:28:08.864Z,470
2017-08-01T07:28:51.242Z,530
2017-08-01T07:29:32.903Z,560
2017-08-01T07:30:13.996Z,665
2017-08-01T07:30:55.131Z,450
2017-08-01T07:31:36.211Z,690
2017-08-01T07:32:17.687Z,830
2017-08-01T07:32:58.796Z,575
2017-08-01T07:33:39.817Z,405
2017-08-01T07:34:21.037Z,600
2017-08-01T07:35:02.347Z,580
2017-08-01T07:35:43.572Z,535
2017-08-01T07:36:24.677Z,520
2017-08-01T07:37:05.671Z,445
2017-08-01T07:37:46.682Z,525
2017-08-01T07:38:27.682Z,640
2017-08-01T07:39:08.595Z,760
2017-08-01T07:39:49.696Z,790
2017-08-01T07:40:30.802Z,900
2017-08-01T07:41:11.701Z,920
2017-08-01T07:41:52.804Z,915
2017-08-01T07:42:33.800Z,680
2017-08-01T07:43:15.005Z,895
2017-08-01T07:43:56.122Z,775
2017-08-01T07:44:37.121Z,600
2017-08-01T07:45:18.229Z,630
2017-08-01T07:45:59.329Z,520
2017-08-01T07:46:40.431Z,455
2017-08-01T07:47:21.452Z,430
2017-08-01T07:48:02.453Z,410
2017-08-01T07:48:43.758Z,455
2017-08-01T07:49:24.754Z,520
2017-08-01T07:50:05.760Z,485
2017-08-01T07:50:47.072Z,480
2017-08-01T07:51:28.275Z,445
2017-08-01T07:52:09.381Z,510
2017-08-01T07:52:50.381Z,635
2017-08-01T07:53:31.594Z,1115
2017-08-01T07:54:12.596Z,1080
2017-08-01T07:54:53.901Z,1125
2017-08-01T07:55:34.909Z,1125
2017-08-01T07:56:16.034Z,1085
2017-08-01T07:56:57.043Z,980
2017-08-01T07:57:38.043Z,895
2017-08-01T07:58:18.952Z,890
2017-08-01T07:58:59.957Z,825
2017-08-01T07:59:40.954Z,780
2017-08-01T08:00:21.964Z,610
2017-08-01T08:01:03.161Z,655
2017-08-01T08:01:44.275Z,630
2017-08-01T08:02:25.474Z,605
2017-08-01T08:03:06.485Z,545
2017-08-01T08:03:48.283Z,570
2017-08-01T08:04:29.394Z,575
2017-08-01T08:05:10.595Z,555
2017-08-01T08:05:51.922Z,530
2017-08-01T08:06:33.110Z,450
2017-08-01T08:07:14.210Z,445
2017-08-01T08:07:55.323Z,450
2017-08-01T08:08:36.533Z,470
2017-08-01T08:09:17.534Z,460
2017-08-01T08:09:58.639Z,420
2017-08-01T08:10:40.649Z,430
2017-08-01T08:11:21.659Z,435
2017-08-01T08:12:03.166Z,430
2017-08-01T08:12:44.269Z,380
2017-08-01T08:13:25.375Z,385
2017-08-01T08:14:06.480Z,385
2017-08-01T08:14:47.685Z,450
2017-08-01T08:15:29.298Z,420
2017-08-01T08:16:10.307Z,375
2017-08-01T08:16:51.313Z,325
2017-08-01T08:17:32.519Z,290
2017-08-01T08:18:13.615Z,260
2017-08-01T08:18:54.613Z,245
2017-08-01T08:19:35.632Z,235
2017-08-01T08:20:16.840Z,235
2017-08-01T08:20:57.848Z,230
2017-08-01T08:21:38.947Z,230
2017-08-01T08:22:20.150Z,235
2017-08-01T08:23:01.262Z,240
2017-08-01T08:23:42.455Z,250
2017-08-01T08:24:23.464Z,260
2017-08-01T08:25:04.667Z,265
2017-08-01T08:25:45.774Z,270
2017-08-01T08:26:26.784Z,270
2017-08-01T08:27:07.785Z,275
2017-08-01T08:27:48.789Z,280
2017-08-01T08:28:29.799Z,280
2017-08-01T08:29:11.008Z,285
2017-08-01T08:29:52.107Z,275
2017-08-01T08:30:33.230Z,270
2017-08-01T08:31:14.417Z,275
2017-08-01T08:31:55.325Z,275
2017-08-01T08:32:36.372Z,270
2017-08-01T08:33:17.575Z,270
2017-08-01T08:33:58.676Z,280
2017-08-01T08:34:39.783Z,285
2017-08-01T08:35:20.986Z,300
2017-08-01T08:36:02.102Z,305
2017-08-01T08:36:43.213Z,325
2017-08-01T08:37:24.314Z,340
2017-08-01T08:38:05.414Z,370
2017-08-01T08:38:46.420Z,420
2017-08-01T08:39:27.522Z,460
2017-08-01T08:40:08.630Z,525
2017-08-01T08:40:49.730Z,550
2017-08-01T08:41:30.734Z,560
2017-08-01T08:42:11.813Z,570
2017-08-01T08:42:52.934Z,560
2017-08-01T08:43:34.010Z,575
2017-08-01T08:44:15.109Z,535
2017-08-01T08:44:56.129Z,495
2017-08-01T08:45:37.236Z,445
2017-08-01T08:46:18.247Z,430
2017-08-01T08:46:59.351Z,430
2017-08-01T08:47:40.453Z,425
2017-08-01T08:48:21.857Z,425
2017-08-01T08:49:03.057Z,415
2017-08-01T08:49:44.179Z,435
2017-08-01T08:50:25.275Z,445
2017-08-01T08:51:06.379Z,410
2017-08-01T08:51:47.383Z,425
2017-08-01T08:52:28.482Z,410
2017-08-01T08:53:09.489Z,405
2017-08-01T08:53:50.589Z,410
2017-08-01T08:54:31.602Z,385
2017-08-01T08:55:12.594Z,350
2017-08-01T08:55:53.603Z,320
2017-08-01T08:56:34.608Z,305
2017-08-01T08:57:15.722Z,295
2017-08-01T08:57:56.812Z,305
2017-08-01T08:58:37.813Z,330
2017-08-01T08:59:19.017Z,360
2017-08-01T09:00:00.019Z,415
2017-08-01T09:00:41.120Z,435
2017-08-01T09:01:22.123Z,445
2017-08-01T09:02:03.129Z,495
2017-08-01T09:02:44.145Z,500
2017-08-01T09:03:25.259Z,505
2017-08-01T09:04:06.372Z,505
2017-08-01T09:04:47.376Z,500
2017-08-01T09:05:28.378Z,515
2017-08-01T09:06:09.689Z,530
2017-08-01T09:06:50.689Z,550
2017-08-01T09:07:31.897Z,550
2017-08-01T09:08:13.412Z,550
2017-08-01T09:08:54.624Z,540
2017-08-01T09:09:35.727Z,510
2017-08-01T09:10:16.880Z,435
2017-08-01T09:10:58.276Z,435
2017-08-01T09:11:39.375Z,415
2017-08-01T09:12:20.473Z,395
2017-08-01T09:13:01.784Z,350
2017-08-01T09:13:42.894Z,315
2017-08-01T09:14:23.795Z,300
2017-08-01T09:15:04.894Z,270
2017-08-01T09:15:45.896Z,240
2017-08-01T09:16:27.107Z,220
2017-08-01T09:17:08.308Z,230
2017-08-01T09:17:49.308Z,300
2017-08-01T09:18:30.419Z,300
2017-08-01T09:19:11.514Z,275
2017-08-01T09:19:52.919Z,230
2017-08-01T09:20:34.017Z,205
2017-08-01T09:21:15.022Z,215
2017-08-01T09:21:56.039Z,230
2017-08-01T09:22:37.139Z,225
2017-08-01T09:23:18.245Z,230
2017-08-01T09:23:59.435Z,235
2017-08-01T09:24:40.646Z,245
2017-08-01T09:25:21.860Z,250
2017-08-01T09:26:03.147Z,255
2017-08-01T09:26:44.455Z,245
2017-08-01T09:27:25.554Z,235
2017-08-01T09:28:06.668Z,225
2017-08-01T09:28:47.865Z,220
2017-08-01T09:29:28.865Z,230
2017-08-01T09:30:09.967Z,235
2017-08-01T09:30:51.074Z,240
2017-08-01T09:31:32.178Z,240
2017-08-01T09:32:13.179Z,245
2017-08-01T09:32:56.592Z,250
2017-08-01T09:33:37.912Z,250
2017-08-01T09:34:19.019Z,255
2017-08-01T09:34:59.927Z,255
2017-08-01T09:35:41.128Z,260
2017-08-01T09:36:22.333Z,260
2017-08-01T09:37:03.550Z,265
2017-08-01T09:37:44.553Z,250
2017-08-01T09:38:25.549Z,245
2017-08-01T09:39:06.663Z,235
2017-08-01T09:39:47.761Z,225
2017-08-01T09:40:28.759Z,215
2017-08-01T09:41:09.988Z,210
2017-08-01T09:41:51.068Z,200
2017-08-01T09:42:32.075Z,190
2017-08-01T09:43:13.068Z,185
2017-08-01T09:43:54.065Z,175
2017-08-01T09:44:35.273Z,170
2017-08-01T09:45:16.466Z,165
2017-08-01T09:45:57.680Z,160
2017-08-01T09:46:38.697Z,160
2017-08-01T09:47:19.694Z,160
2017-08-01T09:48:00.794Z,155
2017-08-01T09:48:41.903Z,155
2017-08-01T09:49:22.915Z,155
2017-08-01T09:50:04.109Z,160
2017-08-01T09:50:45.213Z,160
2017-08-01T09:51:26.209Z,165